createdAt,value
2018-06-05T00:00:07.677Z,30.43
2018-06-05T00:02:37.080Z,29.03
2018-06-05T00:05:06.603Z,28.47
2018-06-05T00:07:35.713Z,30.40
2018-06-05T00:10:04.836Z,32.27
2018-06-05T00:12:34.178Z,31.63
2018-06-05T00:15:03.503Z,32.17
2018-06-05T00:17:33.112Z,32.10
2018-06-05T00:20:02.279Z,31.80
2018-06-05T00:22:31.443Z,31.30
2018-06-05T00:25:00.544Z,34.13
2018-06-05T00:27:29.873Z,31.87
2018-06-05T00:29:58.973Z,32.30
2018-06-05T00:32:28.273Z,32.67
2018-06-05T00:34:57.378Z,34.50
2018-06-05T00:37:26.472Z,33.93
2018-06-05T00:39:55.628Z,32.80
2018-06-05T00:42:24.797Z,32.83
2018-06-05T00:44:54.117Z,35.17
2018-06-05T00:47:23.370Z,33.47
2018-06-05T00:49:52.507Z,31.70
2018-06-05T00:52:21.716Z,33.30
2018-06-05T00:54:51.184Z,30.67
2018-06-05T00:57:21.071Z,33.13
2018-06-05T00:59:50.371Z,33.10
2018-06-05T01:02:19.587Z,32.97
2018-06-05T01:04:49.077Z,33.40
2018-06-05T01:07:18.280Z,34.10
2018-06-05T01:09:47.494Z,32.87
2018-06-05T01:12:17.624Z,33.30
2018-06-05T01:14:46.847Z,34.10
2018-06-05T01:17:16.042Z,33.00
2018-06-05T01:19:45.803Z,32.43
2018-06-05T01:22:15.004Z,31.03
2018-06-05T01:24:44.704Z,34.07
2018-06-05T01:27:14.156Z,33.57
2018-06-05T01:29:43.404Z,31.83
2018-06-05T01:32:12.746Z,32.60
2018-06-05T01:34:42.084Z,32.90
2018-06-05T01:37:11.286Z,32.33
2018-06-05T01:39:40.539Z,34.23
2018-06-05T01:42:09.615Z,34.87
2018-06-05T01:44:39.110Z,34.27
2018-06-05T01:47:08.416Z,35.67
2018-06-05T01:49:41.810Z,34.80
2018-06-05T01:52:10.990Z,34.83
2018-06-05T01:54:40.142Z,35.37
2018-06-05T01:57:09.299Z,34.80
2018-06-05T01:59:38.708Z,35.73
2018-06-05T02:02:07.592Z,33.87
2018-06-05T02:04:36.684Z,34.43
2018-06-05T02:07:05.898Z,33.13
2018-06-05T02:09:35.123Z,34.47
2018-06-05T02:12:05.092Z,33.63
2018-06-05T02:14:34.255Z,34.40
2018-06-05T02:17:03.549Z,33.93
2018-06-05T02:19:32.752Z,35.27
2018-06-05T02:22:01.870Z,31.23
2018-06-05T02:24:31.008Z,33.63
2018-06-05T02:27:00.059Z,31.80
2018-06-05T02:29:29.341Z,34.20
2018-06-05T02:31:58.449Z,34.93
2018-06-05T02:34:27.806Z,33.10
2018-06-05T02:36:56.962Z,34.07
2018-06-05T02:39:26.157Z,34.00
2018-06-05T02:41:55.339Z,34.03
2018-06-05T02:44:24.983Z,34.97
2018-06-05T02:46:54.190Z,34.63
2018-06-05T02:49:23.052Z,31.43
2018-06-05T02:51:53.279Z,31.47
2018-06-05T02:54:22.357Z,34.80
2018-06-05T02:56:51.884Z,33.53
2018-06-05T02:59:21.106Z,34.20
2018-06-05T03:01:50.178Z,34.30
2018-06-05T03:04:19.303Z,33.03
2018-06-05T03:06:49.211Z,34.03
2018-06-05T03:09:18.343Z,34.30
2018-06-05T03:11:47.439Z,35.47
2018-06-05T03:14:16.560Z,34.37
2018-06-05T03:16:45.731Z,33.50
2018-06-05T03:19:14.820Z,33.97
2018-06-05T03:21:43.913Z,34.33
2018-06-05T03:24:13.281Z,33.33
2018-06-05T03:26:42.368Z,34.03
2018-06-05T03:29:11.599Z,33.90
2018-06-05T03:31:40.761Z,32.03
2018-06-05T03:34:10.043Z,34.43
2018-06-05T03:36:40.263Z,33.17
2018-06-05T03:39:09.333Z,33.23
2018-06-05T03:41:38.630Z,35.07
2018-06-05T03:44:08.262Z,33.77
2018-06-05T03:46:37.328Z,33.70
2018-06-05T03:49:06.950Z,33.00
2018-06-05T03:51:36.136Z,32.70
2018-06-05T03:54:05.701Z,33.63
2018-06-05T03:56:35.463Z,32.17
2018-06-05T03:59:05.603Z,32.00
2018-06-05T04:01:34.650Z,31.40
2018-06-05T04:04:04.012Z,29.60
2018-06-05T04:06:33.292Z,30.53
2018-06-05T04:09:02.366Z,31.40
2018-06-05T04:11:31.551Z,29.63
2018-06-05T04:14:01.569Z,29.33
2018-06-05T04:16:30.463Z,27.97
2018-06-05T04:18:59.626Z,29.13
2018-06-05T04:21:28.732Z,28.10
2018-06-05T04:23:58.107Z,27.60
2018-06-05T04:26:28.414Z,26.27
2018-06-05T04:28:58.077Z,26.50
2018-06-05T04:31:27.540Z,28.53
2018-06-05T04:33:57.377Z,25.07
2018-06-05T04:36:26.561Z,24.20
2018-06-05T04:38:55.858Z,25.13
2018-06-05T04:41:25.016Z,25.43
2018-06-05T04:43:54.122Z,25.73
2018-06-05T04:46:23.448Z,29.65
2018-06-05T04:48:53.283Z,26.70
2018-06-05T04:51:22.509Z,25.87
2018-06-05T04:53:51.683Z,27.13
2018-06-05T04:56:21.111Z,26.00
2018-06-05T04:58:50.460Z,26.43
2018-06-05T05:01:20.062Z,24.60
2018-06-05T05:03:49.531Z,26.77
2018-06-05T05:06:19.207Z,27.20
2018-06-05T05:08:48.271Z,26.80
2018-06-05T05:11:18.864Z,23.93
2018-06-05T05:13:48.118Z,23.53
2018-06-05T05:16:17.303Z,23.73
2018-06-05T05:18:46.570Z,22.97
2018-06-05T05:21:15.796Z,23.10
2018-06-05T05:23:45.504Z,23.03
2018-06-05T05:26:14.706Z,22.50
2018-06-05T05:28:43.861Z,22.97
2018-06-05T05:31:13.237Z,23.50
2018-06-05T05:33:43.081Z,21.17
2018-06-05T05:36:12.407Z,21.20
2018-06-05T05:38:41.642Z,22.90
2018-06-05T05:41:10.849Z,22.57
2018-06-05T05:43:40.065Z,22.50
2018-06-05T05:46:09.202Z,21.30
2018-06-05T05:48:38.444Z,22.40
2018-06-05T05:51:07.697Z,20.80
2018-06-05T05:53:36.900Z,22.43
2018-06-05T05:56:06.099Z,22.40
2018-06-05T05:58:35.429Z,21.93
2018-06-05T06:01:04.617Z,23.30
2018-06-05T06:03:33.815Z,22.73
2018-06-05T06:06:03.072Z,23.60
2018-06-05T06:08:32.285Z,23.90
2018-06-05T06:11:01.498Z,24.23
2018-06-05T06:13:30.695Z,22.93
2018-06-05T06:16:00.553Z,24.23
2018-06-05T06:18:30.441Z,23.37
2018-06-05T06:20:59.604Z,23.20
2018-06-05T06:23:28.949Z,23.93
2018-06-05T06:25:58.032Z,22.83
2018-06-05T06:28:27.221Z,23.30
2018-06-05T06:30:56.707Z,21.47
2018-06-05T06:33:25.812Z,23.97
2018-06-05T06:35:55.043Z,23.73
2018-06-05T06:38:24.326Z,23.90
2018-06-05T06:40:53.563Z,23.20
2018-06-05T06:43:22.723Z,23.60
2018-06-05T06:45:52.220Z,24.70
2018-06-05T06:48:21.344Z,22.83
2018-06-05T06:50:50.579Z,22.67
2018-06-05T06:53:19.724Z,22.63
2018-06-05T06:55:48.978Z,24.00
2018-06-05T06:58:18.203Z,22.77
2018-06-05T07:00:47.460Z,23.70
2018-06-05T07:03:16.515Z,22.17
2018-06-05T07:05:45.909Z,23.30
2018-06-05T07:08:15.624Z,22.77
2018-06-05T07:10:44.794Z,23.10
2018-06-05T07:13:14.023Z,22.33
2018-06-05T07:15:43.432Z,24.10
2018-06-05T07:18:12.639Z,22.10
2018-06-05T07:20:41.792Z,23.03
2018-06-05T07:23:10.853Z,22.13
2018-06-05T07:25:40.638Z,23.07
2018-06-05T07:28:09.826Z,20.23
2018-06-05T07:30:39.257Z,23.53
2018-06-05T07:33:08.304Z,21.97
2018-06-05T07:35:37.416Z,22.77
2018-06-05T07:38:06.488Z,24.27
2018-06-05T07:40:35.811Z,22.23
2018-06-05T07:43:04.987Z,22.27
2018-06-05T07:45:34.304Z,23.33
2018-06-05T07:48:03.551Z,22.63
2018-06-05T07:50:32.778Z,22.87
2018-06-05T07:53:01.899Z,23.30
2018-06-05T07:55:31.053Z,21.30
2018-06-05T07:58:00.295Z,20.63
2018-06-05T08:00:29.741Z,24.50
2018-06-05T08:02:58.907Z,23.77
2018-06-05T08:05:27.976Z,22.40
2018-06-05T08:07:57.077Z,20.03
2018-06-05T08:10:26.253Z,21.13
2018-06-05T08:12:55.670Z,21.80
2018-06-05T08:15:25.021Z,24.03
2018-06-05T08:17:54.179Z,22.87
2018-06-05T08:20:23.429Z,23.70
2018-06-05T08:22:54.130Z,21.97
2018-06-05T08:25:23.308Z,24.10
2018-06-05T08:27:52.869Z,23.27
2018-06-05T08:30:22.204Z,22.57
2018-06-05T08:32:51.361Z,23.30
2018-06-05T08:35:20.438Z,26.87
2018-06-05T08:37:49.589Z,24.17
2018-06-05T08:40:18.766Z,25.80
2018-06-05T08:42:47.993Z,24.63
2018-06-05T08:45:17.678Z,23.27
2018-06-05T08:47:46.816Z,25.10
2018-06-05T08:50:16.115Z,26.80
2018-06-05T08:52:45.308Z,26.27
2018-06-05T08:55:14.437Z,26.50
2018-06-05T08:57:44.094Z,26.10
2018-06-05T09:00:13.211Z,27.73
2018-06-05T09:02:42.733Z,27.67
2018-06-05T09:05:11.811Z,26.80
2018-06-05T09:07:40.922Z,30.07
2018-06-05T09:10:10.245Z,28.37
2018-06-05T09:12:39.414Z,26.07
2018-06-05T09:15:08.627Z,29.63
2018-06-05T09:17:37.814Z,29.90
2018-06-05T09:20:07.119Z,27.03
2018-06-05T09:22:36.408Z,26.83
2018-06-05T09:25:05.701Z,24.30
2018-06-05T09:27:34.883Z,24.30
2018-06-05T09:30:04.206Z,24.27
2018-06-05T09:32:33.479Z,27.47
2018-06-05T09:35:02.544Z,25.73
2018-06-05T09:37:31.715Z,25.63
2018-06-05T09:40:00.775Z,31.33
2018-06-05T09:42:30.163Z,25.07
2018-06-05T09:44:59.470Z,24.97
2018-06-05T09:47:28.704Z,26.63
2018-06-05T09:49:58.020Z,25.90
2018-06-05T09:52:27.632Z,29.40
2018-06-05T09:54:56.873Z,25.00
2018-06-05T09:57:26.193Z,24.83
2018-06-05T09:59:55.245Z,26.27
2018-06-05T10:02:24.453Z,24.17
2018-06-05T10:04:54.227Z,24.40
2018-06-05T10:07:23.309Z,22.73
2018-06-05T10:09:52.524Z,24.87
2018-06-05T10:12:21.709Z,25.87
2018-06-05T10:14:50.883Z,24.00
2018-06-05T10:17:20.717Z,24.63
2018-06-05T10:19:49.987Z,27.03
2018-06-05T10:22:19.042Z,25.00
2018-06-05T10:24:48.085Z,24.40
2018-06-05T10:27:17.935Z,23.90
2018-06-05T10:29:46.932Z,25.90
2018-06-05T10:32:16.101Z,26.80
2018-06-05T10:34:46.354Z,24.80
2018-06-05T10:37:15.647Z,24.43
2018-06-05T10:39:44.793Z,29.93
2018-06-05T10:42:14.044Z,30.03
2018-06-05T10:44:43.235Z,30.10
2018-06-05T10:47:12.588Z,27.33
2018-06-05T10:49:41.663Z,27.17
2018-06-05T10:52:10.938Z,24.50
2018-06-05T10:54:40.238Z,28.23
2018-06-05T10:57:09.429Z,26.37
2018-06-05T10:59:38.663Z,28.10
2018-06-05T11:02:07.751Z,25.93
2018-06-05T11:04:37.040Z,26.70
2018-06-05T11:07:06.176Z,25.40
2018-06-05T11:09:35.219Z,24.40
2018-06-05T11:12:04.452Z,29.03
2018-06-05T11:14:34.219Z,27.33
2018-06-05T11:17:04.092Z,28.30
2018-06-05T11:19:33.342Z,26.30
2018-06-05T11:22:02.923Z,28.07
2018-06-05T11:24:39.200Z,28.23
2018-06-05T11:27:08.717Z,31.87
2018-06-05T11:29:37.903Z,28.83
2018-06-05T11:32:07.226Z,31.73
2018-06-05T11:34:37.414Z,30.03
2018-06-05T11:37:07.259Z,31.37
2018-06-05T11:39:36.635Z,29.33
2018-06-05T11:42:06.013Z,33.17
2018-06-05T11:44:34.831Z,31.00
2018-06-05T11:47:04.498Z,29.57
2018-06-05T11:49:34.156Z,31.17
2018-06-05T11:52:05.064Z,30.93
2018-06-05T11:54:34.257Z,31.30
2018-06-05T11:57:07.324Z,33.00
2018-06-05T11:59:36.470Z,33.60
2018-06-05T12:02:06.949Z,34.90
2018-06-05T12:04:36.340Z,33.93
2018-06-05T12:07:06.235Z,35.47
2018-06-05T12:09:35.348Z,31.20
2018-06-05T12:12:05.142Z,33.10
2018-06-05T12:14:34.274Z,33.43
2018-06-05T12:17:03.362Z,30.60
2018-06-05T12:19:32.522Z,32.77
2018-06-05T12:22:01.899Z,30.20
2018-06-05T12:24:31.300Z,29.83
2018-06-05T12:27:00.632Z,32.37
2018-06-05T12:29:29.729Z,34.13
2018-06-05T12:31:59.135Z,33.07
2018-06-05T12:34:28.164Z,31.77
2018-06-05T12:36:57.695Z,30.77
2018-06-05T12:39:27.004Z,31.50
2018-06-05T12:41:56.199Z,28.87
2018-06-05T12:44:25.441Z,35.90
2018-06-05T12:46:55.338Z,32.40
2018-06-05T12:49:24.547Z,31.03
2018-06-05T12:51:53.946Z,32.13
2018-06-05T12:54:23.008Z,32.93
2018-06-05T12:56:52.505Z,38.00
2018-06-05T12:59:21.742Z,34.13
2018-06-05T13:01:52.092Z,35.77
2018-06-05T13:04:21.245Z,33.13
2018-06-05T13:06:50.359Z,34.47
2018-06-05T13:09:19.601Z,36.20
2018-06-05T13:11:48.876Z,35.77
2018-06-05T13:14:18.290Z,33.97
2018-06-05T13:16:47.415Z,32.70
2018-06-05T13:19:16.484Z,31.80
2018-06-05T13:21:45.757Z,33.37
2018-06-05T13:24:15.016Z,38.03
2018-06-05T13:26:44.210Z,36.03
2018-06-05T13:29:13.362Z,34.70
2018-06-05T13:31:43.340Z,31.87
2018-06-05T13:34:12.623Z,31.60
2018-06-05T13:36:41.746Z,33.27
2018-06-05T13:39:11.964Z,31.43
2018-06-05T13:41:41.477Z,31.67
2018-06-05T13:44:10.916Z,31.30
2018-06-05T13:46:40.084Z,29.67
2018-06-05T13:49:10.072Z,30.80
2018-06-05T13:51:39.267Z,27.33
2018-06-05T13:54:08.593Z,27.93
2018-06-05T13:56:37.869Z,28.03
2018-06-05T13:59:07.042Z,31.73
2018-06-05T14:01:36.458Z,30.50
2018-06-05T14:04:05.929Z,26.90
2018-06-05T14:06:34.974Z,30.83
2018-06-05T14:09:06.346Z,29.90
2018-06-05T14:11:35.602Z,29.43
2018-06-05T14:14:05.330Z,28.73
2018-06-05T14:16:34.560Z,31.00
2018-06-05T14:19:04.058Z,31.10
2018-06-05T14:21:33.167Z,29.80
2018-06-05T14:24:02.250Z,28.37
2018-06-05T14:26:31.595Z,31.03
2018-06-05T14:29:00.827Z,29.93
2018-06-05T14:31:30.065Z,28.63
2018-06-05T14:33:59.322Z,29.20
2018-06-05T14:36:28.561Z,29.70
2018-06-05T14:38:57.959Z,28.23
2018-06-05T14:41:27.134Z,29.23
2018-06-05T14:43:56.404Z,28.83
2018-06-05T14:46:25.798Z,26.57
2018-06-05T14:48:55.125Z,29.50
2018-06-05T14:51:24.411Z,27.10
2018-06-05T14:53:53.595Z,29.30
2018-06-05T14:56:22.727Z,26.00
2018-06-05T14:58:59.751Z,26.10
2018-06-05T15:01:29.546Z,25.77
2018-06-05T15:03:58.838Z,25.33
2018-06-05T15:06:28.148Z,24.63
2018-06-05T15:08:57.453Z,25.67
2018-06-05T15:11:26.801Z,27.50
2018-06-05T15:13:55.928Z,28.03
2018-06-05T15:16:25.009Z,27.40
2018-06-05T15:18:54.237Z,30.10
2018-06-05T15:21:23.526Z,29.07
2018-06-05T15:23:52.637Z,26.67
2018-06-05T15:26:22.575Z,27.43
2018-06-05T15:28:51.826Z,27.27
2018-06-05T15:31:21.427Z,26.60
2018-06-05T15:33:50.607Z,24.93
2018-06-05T15:36:19.790Z,23.70
2018-06-05T15:38:48.874Z,25.90
2018-06-05T15:41:17.673Z,28.90
2018-06-05T15:43:46.726Z,27.57
2018-06-05T15:46:16.024Z,29.57
2018-06-05T15:48:45.290Z,27.87
2018-06-05T15:51:14.563Z,29.73
2018-06-05T15:53:43.820Z,24.20
2018-06-05T15:56:13.354Z,27.23
2018-06-05T15:58:42.561Z,26.90
2018-06-05T16:01:11.768Z,25.77
2018-06-05T16:03:41.060Z,25.10
2018-06-05T16:06:10.172Z,23.13
2018-06-05T16:08:39.408Z,26.33
2018-06-05T16:11:08.704Z,27.07
2018-06-05T16:13:37.843Z,27.40
2018-06-05T16:16:07.050Z,27.83
2018-06-05T16:18:36.286Z,26.93
2018-06-05T16:21:05.630Z,28.37
2018-06-05T16:23:34.993Z,27.70
2018-06-05T16:26:04.238Z,26.03
2018-06-05T16:28:34.136Z,28.50
2018-06-05T16:31:03.319Z,24.50
2018-06-05T16:33:34.275Z,25.80
2018-06-05T16:36:03.919Z,24.90
2018-06-05T16:38:33.320Z,26.30
2018-06-05T16:41:02.587Z,24.87
2018-06-05T16:43:32.437Z,28.20
2018-06-05T16:46:01.677Z,27.57
2018-06-05T16:48:30.868Z,23.50
2018-06-05T16:51:00.134Z,23.97
2018-06-05T16:53:30.198Z,27.60
2018-06-05T16:55:59.503Z,26.27
2018-06-05T16:58:28.851Z,25.77
2018-06-05T17:00:57.929Z,27.17
2018-06-05T17:03:27.091Z,26.63
2018-06-05T17:05:56.313Z,26.73
2018-06-05T17:08:25.603Z,26.97
2018-06-05T17:10:54.953Z,23.60
2018-06-05T17:13:24.093Z,20.57
2018-06-05T17:15:53.385Z,21.67
2018-06-05T17:18:22.572Z,26.27
2018-06-05T17:20:51.913Z,23.45
2018-06-05T17:23:21.299Z,22.80
2018-06-05T17:25:50.450Z,24.05
2018-06-05T17:28:19.938Z,24.95
2018-06-05T17:30:50.274Z,21.35
2018-06-05T17:33:19.529Z,23.30
2018-06-05T17:35:48.696Z,26.55
2018-06-05T17:38:17.896Z,21.07
2018-06-05T17:40:47.095Z,22.40
2018-06-05T17:43:16.291Z,21.82
2018-06-05T17:45:45.533Z,26.20
2018-06-05T17:48:14.926Z,22.82
2018-06-05T17:50:44.735Z,25.32
2018-06-05T17:53:14.134Z,21.73
2018-06-05T17:55:43.441Z,22.22
2018-06-05T17:58:12.647Z,19.52
2018-06-05T18:00:41.845Z,22.95
2018-06-05T18:03:11.105Z,21.52
2018-06-05T18:05:40.309Z,21.63
2018-06-05T18:08:09.641Z,22.67
2018-06-05T18:10:38.728Z,24.07
2018-06-05T18:13:08.032Z,23.90
2018-06-05T18:15:37.135Z,25.63
2018-06-05T18:18:06.462Z,24.83
2018-06-05T18:20:35.624Z,21.87
2018-06-05T18:23:05.306Z,24.83
2018-06-05T18:25:35.065Z,24.43
2018-06-05T18:28:04.378Z,21.47
2018-06-05T18:30:33.389Z,21.70
2018-06-05T18:33:02.888Z,23.17
2018-06-05T18:35:32.384Z,24.40
2018-06-05T18:38:01.620Z,23.07
2018-06-05T18:40:30.743Z,21.73
2018-06-05T18:43:00.141Z,22.13
2018-06-05T18:45:29.236Z,23.23
2018-06-05T18:47:58.463Z,22.53
2018-06-05T18:50:27.631Z,23.00
2018-06-05T18:52:56.839Z,22.47
2018-06-05T18:55:26.035Z,26.73
2018-06-05T18:57:55.253Z,22.40
2018-06-05T19:00:24.058Z,23.80
2018-06-05T19:02:53.314Z,22.43
2018-06-05T19:05:22.514Z,21.27
2018-06-05T19:07:51.565Z,25.13
2018-06-05T19:10:20.698Z,21.40
2018-06-05T19:12:50.322Z,21.70
2018-06-05T19:15:19.915Z,21.67
2018-06-05T19:17:49.010Z,21.97
2018-06-05T19:20:18.411Z,21.83
2018-06-05T19:22:47.641Z,22.83
2018-06-05T19:25:17.274Z,20.90
2018-06-05T19:27:46.443Z,21.97
2018-06-05T19:30:15.909Z,20.50
2018-06-05T19:32:45.077Z,21.10
2018-06-05T19:35:14.647Z,21.37
2018-06-05T19:37:43.840Z,21.87
2018-06-05T19:40:13.255Z,22.83
2018-06-05T19:42:42.475Z,22.07
2018-06-05T19:45:11.866Z,22.13
2018-06-05T19:47:41.005Z,21.27
2018-06-05T19:50:10.236Z,20.57
2018-06-05T19:52:39.435Z,21.20
2018-06-05T19:55:08.583Z,20.83
2018-06-05T19:57:37.838Z,21.43
2018-06-05T20:00:07.453Z,21.73
2018-06-05T20:02:36.580Z,22.33
2018-06-05T20:05:05.931Z,21.23
2018-06-05T20:07:35.756Z,22.13
2018-06-05T20:10:05.121Z,23.80
2018-06-05T20:12:34.336Z,22.03
2018-06-05T20:15:03.670Z,21.93
2018-06-05T20:17:33.538Z,22.77
2018-06-05T20:20:02.625Z,21.67
2018-06-05T20:22:31.902Z,22.07
2018-06-05T20:25:02.389Z,22.37
2018-06-05T20:27:31.516Z,21.90
2018-06-05T20:30:00.879Z,21.20
2018-06-05T20:32:30.439Z,24.60
2018-06-05T20:34:59.521Z,23.93
2018-06-05T20:37:28.786Z,22.13
2018-06-05T20:39:58.073Z,22.43
2018-06-05T20:42:27.407Z,24.47
2018-06-05T20:44:56.825Z,23.00
2018-06-05T20:47:26.185Z,24.57
2018-06-05T20:49:55.390Z,25.40
2018-06-05T20:52:24.698Z,22.73
2018-06-05T20:54:54.621Z,29.43
2018-06-05T20:57:24.397Z,29.07
2018-06-05T20:59:53.715Z,28.47
2018-06-05T21:02:23.020Z,29.17
2018-06-05T21:04:52.874Z,36.33
2018-06-05T21:07:22.532Z,36.03
2018-06-05T21:09:52.084Z,40.20
2018-06-05T21:12:21.316Z,39.23
2018-06-05T21:14:50.427Z,40.20
2018-06-05T21:17:19.676Z,37.80
2018-06-05T21:19:48.921Z,31.33
2018-06-05T21:22:18.050Z,28.70
2018-06-05T21:24:47.425Z,27.60
2018-06-05T21:27:16.774Z,30.77
2018-06-05T21:29:46.107Z,32.73
2018-06-05T21:32:15.325Z,30.70
2018-06-05T21:34:44.442Z,30.13
2018-06-05T21:37:13.859Z,30.53
2018-06-05T21:39:43.760Z,29.13
2018-06-05T21:42:12.988Z,30.17
2018-06-05T21:44:42.068Z,32.40
2018-06-05T21:47:11.304Z,33.77
2018-06-05T21:49:40.837Z,28.93
2018-06-05T21:52:10.060Z,32.13
2018-06-05T21:54:39.243Z,29.60
2018-06-05T21:57:08.465Z,27.87
2018-06-05T21:59:37.724Z,30.73
2018-06-05T22:02:07.071Z,30.87
2018-06-05T22:04:36.417Z,29.40
2018-06-05T22:07:06.110Z,28.03
2018-06-05T22:09:35.307Z,27.90
2018-06-05T22:12:05.129Z,27.93
2018-06-05T22:14:34.326Z,31.27
2018-06-05T22:17:03.820Z,29.00
2018-06-05T22:19:32.902Z,30.27
2018-06-05T22:22:02.135Z,29.97
2018-06-05T22:24:31.263Z,28.40
2018-06-05T22:27:00.478Z,30.03
2018-06-05T22:29:29.752Z,30.47
2018-06-05T22:31:59.047Z,30.20
2018-06-05T22:34:28.363Z,31.47
2018-06-05T22:36:57.427Z,32.10
2018-06-05T22:39:26.784Z,27.30
2018-06-05T22:41:56.091Z,28.37
2018-06-05T22:44:25.681Z,30.00
2018-06-05T22:46:54.838Z,28.30
2018-06-05T22:49:23.953Z,28.23
2018-06-05T22:51:53.029Z,27.57
2018-06-05T22:54:22.905Z,31.73
2018-06-05T22:56:52.080Z,29.37
2018-06-05T22:59:21.105Z,31.10
2018-06-05T23:01:50.155Z,27.83
2018-06-05T23:04:19.191Z,29.40
2018-06-05T23:06:48.247Z,28.73
2018-06-05T23:09:17.305Z,29.50
2018-06-05T23:11:46.810Z,28.93
2018-06-05T23:14:17.047Z,29.43
2018-06-05T23:16:46.251Z,32.40
2018-06-05T23:19:16.050Z,29.37
2018-06-05T23:21:45.829Z,27.93
2018-06-05T23:24:14.924Z,29.97
2018-06-05T23:26:44.151Z,28.50
2018-06-05T23:29:13.298Z,25.83
2018-06-05T23:31:42.590Z,29.17
2018-06-05T23:34:11.767Z,28.60
2018-06-05T23:36:41.040Z,29.53
2018-06-05T23:39:10.163Z,29.50
2018-06-05T23:41:39.485Z,27.47
2018-06-05T23:44:08.792Z,30.37
2018-06-05T23:46:38.786Z,31.83
2018-06-05T23:49:07.561Z,33.47
2018-06-05T23:51:36.604Z,33.30
2018-06-05T23:54:06.581Z,32.87
2018-06-05T23:56:35.685Z,29.90
2018-06-05T23:59:04.941Z,34.23
